^^
Saratoga-Weather Station Historical Data
Daily Summary for January 29, 2020 Units:  Metric    English   Both
Daily Weekly Monthly Yearly Custom
  High: Low: Average:
Temperature: 5.5 °C 2.2 °C 4 °C
Dew Point: 4.1 °C 1.2 °C 2.8 °C
Humidity: 95% 86% 92%
Wind Speed: 9.7km/h 0km/h 0.1km/h
Wind Gust: 29km/h - -
Wind- - West
Pressure: 1016.9 hPa 1003.0 hPa -
Precipitation: 3.6 mm    
Historical Graphs
 
 
Tabular Data for January 29, 2020
Time Temperature Dew Point Pressure Wind Wind Speed Wind Gust Humidity Rainfall Rate (Hourly) solar
00:02 3.1 °C 2.2 °C 1003.0 hPa Calm   20.9 km/h 94% 0.2 mm 0 W/m2
00:07 3.2 °C 2.3 °C 1003.0 hPa Calm     94% 0.2 mm 0 W/m2
00:12 3.3 °C 2.4 °C 1003.4 hPa Calm     94% 0.2 mm 0 W/m2
00:17 3.3 °C 2.4 °C 1003.7 hPa Calm     94% 0.2 mm 0 W/m2
00:22 3.4 °C 2.4 °C 1003.4 hPa Calm     93% 0.0 mm 0 W/m2
00:27 3.5 °C 2.5 °C 1003.7 hPa Calm     93% 0.0 mm 0 W/m2
00:32 3.5 °C 2.5 °C 1003.7 hPa Calm     93% 0.0 mm 0 W/m2
00:37 3.6 °C 2.6 °C 1003.7 hPa Calm     93% 0.0 mm 0 W/m2
00:42 3.6 °C 2.6 °C 1003.7 hPa Calm     93% 0.0 mm 0 W/m2
00:47 3.7 °C 2.7 °C 1004.1 hPa Calm     93% 0.0 mm 0 W/m2
00:53 3.6 °C 2.6 °C 1004.1 hPa Calm     93% 0.0 mm 0 W/m2
00:58 3.5 °C 2.5 °C 1004.1 hPa Calm     93% 0.2 mm 0 W/m2
01:03 3.5 °C 2.5 °C 1004.1 hPa Calm     93% 0.5 mm 0 W/m2
01:08 3.4 °C 2.4 °C 1004.1 hPa Calm     93% 0.5 mm 0 W/m2
01:13 3.3 °C 2.3 °C 1004.4 hPa Calm   4.8 km/h 93% 0.5 mm 0 W/m2
01:18 3.2 °C 2.2 °C 1004.4 hPa Calm     93% 0.8 mm 0 W/m2
01:23 3.1 °C 2.1 °C 1004.4 hPa Calm     93% 1.0 mm 0 W/m2
01:28 3 °C 2.1 °C 1005.1 hPa Calm   19.3 km/h 94% 1.0 mm 0 W/m2
01:33 2.8 °C 1.9 °C 1005.1 hPa Calm   1.6 km/h 94% 1.3 mm 0 W/m2
01:38 2.7 °C 1.8 °C 1005.1 hPa Calm     94% 1.3 mm 0 W/m2
01:43 2.5 °C 1.5 °C 1005.1 hPa Calm   1.6 km/h 93% 1.5 mm 0 W/m2
01:48 2.4 °C 1.5 °C 1005.1 hPa Calm   4.8 km/h 94% 1.5 mm 0 W/m2
01:53 2.3 °C 1.4 °C 1005.4 hPa WNW 9.7 km/h 14.5 km/h 94% 1.5 mm 0 W/m2
01:58 2.3 °C 1.4 °C 1005.4 hPa Calm   1.6 km/h 94% 1.5 mm 0 W/m2
02:03 2.2 °C 1.2 °C 1005.4 hPa Calm   1.6 km/h 93% 1.5 mm 0 W/m2
02:08 2.2 °C 1.3 °C 1005.8 hPa Calm     94% 1.3 mm 0 W/m2
02:13 2.2 °C 1.3 °C 1005.8 hPa Calm     94% 1.3 mm 0 W/m2
02:18 2.2 °C 1.3 °C 1005.8 hPa Calm     94% 1.0 mm 0 W/m2
02:24 2.2 °C 1.3 °C 1005.8 hPa Calm     94% 0.8 mm 0 W/m2
02:29 2.2 °C 1.3 °C 1005.8 hPa Calm     94% 0.8 mm 0 W/m2
02:34 2.3 °C 1.4 °C 1006.1 hPa Calm     94% 0.5 mm 0 W/m2
02:39 2.3 °C 1.4 °C 1006.1 hPa Calm     94% 0.5 mm 0 W/m2
02:44 2.4 °C 1.5 °C 1006.1 hPa Calm     94% 0.5 mm 0 W/m2
02:49 2.6 °C 1.9 °C 1006.4 hPa Calm   12.9 km/h 95% 0.5 mm 0 W/m2
02:54 2.8 °C 1.9 °C 1006.4 hPa Calm   1.6 km/h 94% 0.5 mm 0 W/m2
02:59 2.9 °C 2 °C 1006.4 hPa Calm   29 km/h 94% 0.2 mm 0 W/m2
03:04 3.1 °C 2.2 °C 1006.4 hPa Calm     94% 0.0 mm 0 W/m2
03:09 3.2 °C 2.2 °C 1006.8 hPa Calm   6.4 km/h 93% 0.0 mm 0 W/m2
03:14 3.2 °C 2.2 °C 1006.8 hPa Calm     93% 0.0 mm 0 W/m2
03:19 3.2 °C 2 °C 1006.8 hPa Calm   16.1 km/h 92% 0.0 mm 0 W/m2
03:24 3.2 °C 2 °C 1006.8 hPa Calm     92% 0.0 mm 0 W/m2
03:29 3.2 °C 2 °C 1006.8 hPa Calm   11.3 km/h 92% 0.0 mm 0 W/m2
03:34 3.2 °C 2 °C 1007.1 hPa Calm     92% 0.0 mm 0 W/m2
03:39 3.2 °C 2 °C 1007.1 hPa Calm     92% 0.0 mm 0 W/m2
03:44 3.2 °C 2 °C 1007.1 hPa Calm     92% 0.0 mm 0 W/m2
03:49 3.2 °C 2 °C 1007.1 hPa Calm     92% 0.0 mm 0 W/m2
03:54 3.2 °C 2 °C 1007.1 hPa Calm   17.7 km/h 92% 0.0 mm 0 W/m2
03:59 3.2 °C 2 °C 1007.1 hPa Calm   4.8 km/h 92% 0.0 mm 0 W/m2
04:04 3.2 °C 2 °C 1007.5 hPa Calm     92% 0.0 mm 0 W/m2
04:09 3.2 °C 2 °C 1007.5 hPa Calm     92% 0.0 mm 0 W/m2
04:14 3.2 °C 2 °C 1007.5 hPa Calm     92% 0.0 mm 0 W/m2
04:19 3.2 °C 2 °C 1007.5 hPa Calm   1.6 km/h 92% 0.0 mm 0 W/m2
04:24 3.2 °C 2 °C 1007.5 hPa Calm     92% 0.0 mm 0 W/m2
04:29 3.2 °C 2 °C 1007.5 hPa Calm   12.9 km/h 92% 0.0 mm 0 W/m2
04:34 3.2 °C 2 °C 1007.5 hPa Calm   4.8 km/h 92% 0.0 mm 0 W/m2
04:39 3.1 °C 1.9 °C 1007.5 hPa Calm   6.4 km/h 92% 0.0 mm 0 W/m2
04:44 3.1 °C 1.9 °C 1007.5 hPa Calm     92% 0.0 mm 0 W/m2
04:49 3.1 °C 1.9 °C 1007.8 hPa Calm   3.2 km/h 92% 0.0 mm 0 W/m2
04:54 3.2 °C 2 °C 1007.8 hPa Calm     92% 0.0 mm 0 W/m2
04:59 3.2 °C 2 °C 1007.8 hPa Calm   12.9 km/h 92% 0.0 mm 0 W/m2
05:04 3.2 °C 2 °C 1007.8 hPa Calm     92% 0.0 mm 0 W/m2
05:10 3.2 °C 2 °C 1008.1 hPa Calm     92% 0.0 mm 0 W/m2
05:15 3.1 °C 1.9 °C 1008.1 hPa Calm   1.6 km/h 92% 0.0 mm 0 W/m2
05:20 3.2 °C 2 °C 1008.5 hPa Calm     92% 0.0 mm 0 W/m2
05:25 3.1 °C 1.9 °C 1008.5 hPa Calm     92% 0.0 mm 0 W/m2
05:30 3.2 °C 2 °C 1008.5 hPa Calm     92% 0.0 mm 0 W/m2
05:35 3.2 °C 2 °C 1008.5 hPa Calm     92% 0.0 mm 0 W/m2
05:40 3.2 °C 2 °C 1008.5 hPa Calm     92% 0.0 mm 0 W/m2
05:45 3.3 °C 2.1 °C 1008.5 hPa Calm     92% 0.0 mm 0 W/m2
05:50 3.3 °C 2 °C 1008.5 hPa Calm   3.2 km/h 91% 0.0 mm 0 W/m2
05:55 3.3 °C 2.1 °C 1008.5 hPa Calm     92% 0.0 mm 0 W/m2
06:00 3.3 °C 2 °C 1008.5 hPa Calm     91% 0.0 mm 0 W/m2
06:05 3.3 °C 2 °C 1008.5 hPa Calm     91% 0.0 mm 0 W/m2
06:10 3.3 °C 2 °C 1008.5 hPa Calm     91% 0.0 mm 0 W/m2
06:15 3.3 °C 2.1 °C 1008.8 hPa Calm     92% 0.0 mm 0 W/m2
06:20 3.3 °C 2 °C 1008.8 hPa Calm     91% 0.0 mm 0 W/m2
06:25 3.3 °C 2 °C 1008.8 hPa Calm     91% 0.0 mm 0 W/m2
06:30 3.3 °C 2 °C 1008.8 hPa Calm     91% 0.0 mm 0 W/m2
06:35 3.3 °C 2.1 °C 1008.8 hPa Calm     92% 0.0 mm 0 W/m2
06:40 3.2 °C 2 °C 1008.8 hPa Calm     92% 0.0 mm 0 W/m2
06:45 3.3 °C 2.1 °C 1009.1 hPa Calm     92% 0.0 mm 0 W/m2
06:50 3.2 °C 2 °C 1009.1 hPa Calm     92% 0.0 mm 0 W/m2
06:55 3.2 °C 2 °C 1009.1 hPa Calm     92% 0.0 mm 0 W/m2
07:00 3.2 °C 2 °C 1009.1 hPa Calm     92% 0.0 mm 0 W/m2
07:05 3.2 °C 2 °C 1009.1 hPa Calm     92% 0.0 mm 0 W/m2
07:10 3.2 °C 2 °C 1009.1 hPa Calm     92% 0.0 mm 0 W/m2
07:15 3.2 °C 2 °C 1009.1 hPa Calm     92% 0.0 mm 0 W/m2
07:20 3.2 °C 2 °C 1009.1 hPa Calm     92% 0.0 mm 0 W/m2
07:25 3.2 °C 2 °C 1009.5 hPa Calm     92% 0.0 mm 0 W/m2
07:30 3.2 °C 2 °C 1009.5 hPa Calm     92% 0.0 mm 0 W/m2
07:35 3.3 °C 2.3 °C 1009.5 hPa Calm     93% 0.0 mm 0 W/m2
07:40 3.3 °C 2.3 °C 1009.5 hPa Calm     93% 0.0 mm 0 W/m2
07:45 3.3 °C 2.3 °C 1009.5 hPa Calm     93% 0.0 mm 0 W/m2
07:50 3.3 °C 2.3 °C 1009.5 hPa Calm     93% 0.0 mm 0 W/m2
07:55 3.3 °C 2.3 °C 1009.5 hPa Calm     93% 0.0 mm 0 W/m2
08:00 3.4 °C 2.4 °C 1009.5 hPa West 4.8 km/h 4.8 km/h 93% 0.0 mm 0 W/m2
08:05 3.4 °C 2.4 °C 1009.5 hPa Calm     93% 0.0 mm 0 W/m2
08:11 3.5 °C 2.3 °C 1009.8 hPa Calm     92% 0.0 mm 0 W/m2
08:16 3.6 °C 2.4 °C 1009.8 hPa Calm     92% 0.0 mm 0 W/m2
08:21 3.6 °C 2.6 °C 1009.8 hPa Calm   1.6 km/h 93% 0.0 mm 0 W/m2
08:26 3.7 °C 2.7 °C 1009.8 hPa Calm     93% 0.0 mm 0 W/m2
08:31 3.7 °C 2.7 °C 1010.2 hPa Calm     93% 0.0 mm 0 W/m2
08:36 3.7 °C 2.5 °C 1010.2 hPa Calm     92% 0.0 mm 5 W/m2
08:41 3.7 °C 2.5 °C 1010.2 hPa Calm     92% 0.0 mm 9 W/m2
08:46 3.7 °C 2.5 °C 1010.2 hPa Calm     92% 0.0 mm 12 W/m2
08:51 3.7 °C 2.5 °C 1010.2 hPa Calm     92% 0.0 mm 25 W/m2
08:56 3.7 °C 2.5 °C 1010.5 hPa Calm     92% 0.0 mm 9 W/m2
09:01 3.8 °C 2.6 °C 1010.2 hPa Calm     92% 0.0 mm 12 W/m2
09:06 3.8 °C 2.6 °C 1010.2 hPa Calm     92% 0.0 mm 14 W/m2
09:11 3.8 °C 2.6 °C 1010.2 hPa Calm     92% 0.0 mm 23 W/m2
09:16 3.8 °C 2.6 °C 1010.5 hPa Calm     92% 0.0 mm 16 W/m2
09:21 3.8 °C 2.6 °C 1010.5 hPa Calm     92% 0.0 mm 18 W/m2
09:26 3.9 °C 2.7 °C 1010.5 hPa Calm     92% 0.0 mm 16 W/m2
09:31 3.9 °C 2.7 °C 1010.5 hPa Calm     92% 0.0 mm 25 W/m2
09:36 3.9 °C 2.7 °C 1010.5 hPa Calm     92% 0.0 mm 23 W/m2
09:41 3.9 °C 2.7 °C 1010.5 hPa Calm     92% 0.0 mm 28 W/m2
09:46 4 °C 2.8 °C 1010.2 hPa Calm     92% 0.0 mm 77 W/m2
09:51 4.1 °C 2.9 °C 1010.5 hPa Calm     92% 0.0 mm 53 W/m2
09:56 4.1 °C 2.9 °C 1010.5 hPa Calm     92% 0.0 mm 54 W/m2
10:01 4.2 °C 3 °C 1010.5 hPa Calm     92% 0.0 mm 98 W/m2
10:06 4.3 °C 3 °C 1010.8 hPa Calm     91% 0.0 mm 105 W/m2
10:11 4.4 °C 3.1 °C 1010.8 hPa Calm     91% 0.0 mm 137 W/m2
10:16 4.5 °C 3.2 °C 1010.8 hPa Calm   1.6 km/h 91% 0.0 mm 97 W/m2
10:21 4.6 °C 3.1 °C 1010.8 hPa Calm     90% 0.0 mm 90 W/m2
10:26 4.6 °C 3.1 °C 1010.8 hPa Calm     90% 0.0 mm 146 W/m2
10:31 4.7 °C 3.2 °C 1010.8 hPa Calm     90% 0.0 mm 181 W/m2
10:36 4.8 °C 3.3 °C 1010.8 hPa Calm     90% 0.0 mm 146 W/m2
10:41 4.8 °C 3.3 °C 1011.2 hPa Calm     90% 0.0 mm 56 W/m2
10:46 4.7 °C 3 °C 1010.8 hPa Calm     89% 0.0 mm 116 W/m2
10:51 4.8 °C 3.3 °C 1010.8 hPa Calm     90% 0.0 mm 116 W/m2
10:56 4.8 °C 3.3 °C 1011.2 hPa Calm     90% 0.0 mm 155 W/m2
11:01 4.9 °C 3.6 °C 1011.2 hPa Calm     91% 0.0 mm 97 W/m2
11:06 4.9 °C 3.4 °C 1011.2 hPa Calm   1.6 km/h 90% 0.0 mm 93 W/m2
11:11 4.9 °C 3.4 °C 1011.2 hPa Calm     90% 0.0 mm 84 W/m2
11:16 4.9 °C 3.4 °C 1011.2 hPa Calm     90% 0.0 mm 83 W/m2
11:21 5 °C 3.5 °C 1011.2 hPa Calm     90% 0.0 mm 172 W/m2
11:26 5.1 °C 3.6 °C 1011.2 hPa Calm     90% 0.0 mm 202 W/m2
11:31 5.2 °C 3.7 °C 1011.2 hPa Calm     90% 0.0 mm 230 W/m2
11:36 5.3 °C 3.8 °C 1011.2 hPa Calm     90% 0.0 mm 160 W/m2
11:41 5.5 °C 3.8 °C 1011.5 hPa Calm   3.2 km/h 89% 0.0 mm 128 W/m2
11:46 5.4 °C 3.7 °C 1011.5 hPa Calm     89% 0.0 mm 83 W/m2
11:51 5.4 °C 3.6 °C 1011.5 hPa Calm   3.2 km/h 88% 0.0 mm 51 W/m2
11:56 5 °C 3.2 °C 1011.5 hPa Calm     88% 0.2 mm 51 W/m2
12:01 4.6 °C 3.1 °C 1011.5 hPa Calm     90% 0.5 mm 60 W/m2
12:06 4.4 °C 3.1 °C 1011.9 hPa Calm     91% 0.5 mm 65 W/m2
12:11 4.4 °C 3.1 °C 1011.5 hPa Calm     91% 0.5 mm 72 W/m2
12:16 4.4 °C 3.2 °C 1011.5 hPa Calm     92% 0.5 mm 185 W/m2
12:22 4.6 °C 3.4 °C 1011.5 hPa Calm     92% 0.5 mm 142 W/m2
12:27 4.7 °C 3.7 °C 1011.5 hPa Calm     93% 0.5 mm 70 W/m2
12:32 4.8 °C 3.8 °C 1011.5 hPa Calm   1.6 km/h 93% 0.5 mm 63 W/m2
12:37 5 °C 4 °C 1011.5 hPa Calm     93% 0.5 mm 35 W/m2
12:42 5.1 °C 4.1 °C 1011.5 hPa Calm     93% 0.8 mm 39 W/m2
12:47 5 °C 3.8 °C 1011.5 hPa Calm     92% 1.3 mm 35 W/m2
12:52 4.8 °C 3.6 °C 1011.5 hPa Calm     92% 1.0 mm 26 W/m2
12:57 4.7 °C 3.7 °C 1011.5 hPa Calm     93% 0.8 mm 97 W/m2
13:02 4.8 °C 3.8 °C 1011.5 hPa Calm     93% 0.8 mm 77 W/m2
13:07 4.9 °C 3.7 °C 1011.5 hPa Calm   1.6 km/h 92% 0.8 mm 53 W/m2
13:12 4.9 °C 3.7 °C 1011.5 hPa Calm   29 km/h 92% 0.8 mm 56 W/m2
13:17 4.9 °C 3.6 °C 1011.5 hPa Calm   1.6 km/h 91% 0.8 mm 49 W/m2
13:22 4.8 °C 3.3 °C 1011.5 hPa Calm   29 km/h 90% 0.8 mm 44 W/m2
13:27 4.7 °C 3.2 °C 1011.2 hPa Calm     90% 0.8 mm 53 W/m2
13:32 4.7 °C 3.2 °C 1011.5 hPa Calm   11.3 km/h 90% 0.8 mm 65 W/m2
13:37 4.7 °C 3.2 °C 1011.5 hPa Calm     90% 0.8 mm 83 W/m2
13:43 4.7 °C 3.4 °C 1011.5 hPa Calm     91% 0.5 mm 67 W/m2
13:48 4.8 °C 3.5 °C 1011.5 hPa Calm   8 km/h 91% 0.0 mm 65 W/m2
13:53 4.9 °C 3.6 °C 1011.2 hPa Calm     91% 0.0 mm 53 W/m2
13:58 4.9 °C 3.6 °C 1011.5 hPa Calm     91% 0.0 mm 62 W/m2
14:03 5 °C 3.7 °C 1011.5 hPa Calm     91% 0.0 mm 60 W/m2
14:08 5 °C 3.5 °C 1011.9 hPa Calm   1.6 km/h 90% 0.0 mm 56 W/m2
14:13 5.1 °C 3.6 °C 1011.9 hPa Calm     90% 0.0 mm 105 W/m2
14:18 5.2 °C 3.5 °C 1011.9 hPa Calm   1.6 km/h 89% 0.0 mm 97 W/m2
14:23 5.2 °C 3.5 °C 1011.9 hPa Calm   24.1 km/h 89% 0.0 mm 26 W/m2
14:28 4.9 °C 3.2 °C 1012.2 hPa Calm     89% 0.5 mm 40 W/m2
14:33 4.7 °C 3.2 °C 1012.2 hPa Calm     90% 0.5 mm 98 W/m2
14:38 4.7 °C 3.4 °C 1012.2 hPa Calm     91% 0.5 mm 86 W/m2
14:43 4.7 °C 3.2 °C 1012.2 hPa Calm   1.6 km/h 90% 0.5 mm 53 W/m2
14:48 4.8 °C 3.3 °C 1012.2 hPa Calm     90% 0.5 mm 39 W/m2
14:53 4.7 °C 3.4 °C 1012.2 hPa Calm     91% 0.5 mm 54 W/m2
14:58 4.8 °C 3.5 °C 1012.5 hPa Calm     91% 0.5 mm 69 W/m2
15:03 4.8 °C 3.5 °C 1012.5 hPa Calm     91% 0.5 mm 65 W/m2
15:08 4.8 °C 3.5 °C 1012.5 hPa Calm     91% 0.5 mm 90 W/m2
15:13 4.8 °C 3.5 °C 1012.5 hPa Calm     91% 0.5 mm 37 W/m2
15:18 4.8 °C 3.5 °C 1012.9 hPa Calm     91% 0.5 mm 28 W/m2
15:23 4.8 °C 3.5 °C 1012.9 hPa Calm   1.6 km/h 91% 0.5 mm 33 W/m2
15:28 4.8 °C 3.5 °C 1012.9 hPa Calm     91% 0.2 mm 44 W/m2
15:33 4.8 °C 3.5 °C 1012.9 hPa Calm     91% 0.2 mm 26 W/m2
15:38 4.8 °C 3.5 °C 1012.9 hPa Calm     91% 0.2 mm 25 W/m2
15:43 4.9 °C 3.6 °C 1012.9 hPa Calm     91% 0.0 mm 32 W/m2
15:48 5.1 °C 3.6 °C 1013.2 hPa Calm     90% 0.0 mm 44 W/m2
15:53 5.2 °C 3.7 °C 1013.2 hPa Calm     90% 0.0 mm 58 W/m2
15:58 5.3 °C 3.8 °C 1013.2 hPa Calm   3.2 km/h 90% 0.0 mm 49 W/m2
16:03 5.4 °C 3.6 °C 1013.5 hPa Calm   1.6 km/h 88% 0.0 mm 46 W/m2
16:08 5.3 °C 3.5 °C 1013.5 hPa Calm   1.6 km/h 88% 0.0 mm 26 W/m2
16:13 5.2 °C 3.4 °C 1013.5 hPa Calm     88% 0.0 mm 32 W/m2
16:18 5.2 °C 3.2 °C 1013.5 hPa Calm     87% 0.0 mm 39 W/m2
16:23 5.2 °C 3.4 °C 1013.5 hPa Calm     88% 0.0 mm 39 W/m2
16:28 5.2 °C 3.4 °C 1013.5 hPa Calm     88% 0.0 mm 19 W/m2
16:33 5.3 °C 3.3 °C 1013.5 hPa Calm     87% 0.0 mm 18 W/m2
16:38 5.2 °C 3.4 °C 1013.5 hPa Calm     88% 0.0 mm 16 W/m2
16:43 5.2 °C 3.4 °C 1013.5 hPa Calm     88% 0.0 mm 16 W/m2
16:48 5.2 °C 3.4 °C 1013.5 hPa Calm     88% 0.0 mm 18 W/m2
16:53 5.2 °C 3.4 °C 1013.9 hPa Calm     88% 0.0 mm 18 W/m2
16:58 5.3 °C 3.5 °C 1013.9 hPa Calm   1.6 km/h 88% 0.0 mm 18 W/m2
17:03 5.3 °C 3.5 °C 1013.5 hPa Calm     88% 0.0 mm 16 W/m2
17:08 5.3 °C 3.3 °C 1013.5 hPa Calm     87% 0.0 mm 12 W/m2
17:13 5.3 °C 3.3 °C 1013.5 hPa Calm     87% 0.0 mm 11 W/m2
17:18 5.2 °C 3.2 °C 1013.5 hPa Calm     87% 0.0 mm 9 W/m2
17:23 5.2 °C 3.2 °C 1013.9 hPa Calm     87% 0.0 mm 5 W/m2
17:28 5.2 °C 3.2 °C 1013.9 hPa Calm     87% 0.0 mm 0 W/m2
17:33 5.2 °C 3.2 °C 1013.9 hPa Calm     87% 0.0 mm 0 W/m2
17:38 5.2 °C 3.1 °C 1013.9 hPa Calm   1.6 km/h 86% 0.0 mm 0 W/m2
17:43 5.2 °C 3.2 °C 1014.2 hPa Calm     87% 0.0 mm 0 W/m2
17:48 5.1 °C 3 °C 1013.9 hPa West 1.4 km/h 1.6 km/h 86% 0.0 mm 0 W/m2
17:53 5.1 °C 3 °C 1014.2 hPa Calm     86% 0.0 mm 0 W/m2
17:59 5.1 °C 3 °C 1014.2 hPa Calm   1.6 km/h 86% 0.0 mm 0 W/m2
18:04 5.1 °C 3 °C 1014.2 hPa Calm     86% 0.0 mm 0 W/m2
18:09 5 °C 2.9 °C 1014.6 hPa Calm     86% 0.0 mm 0 W/m2
18:14 4.9 °C 2.9 °C 1014.6 hPa Calm     87% 0.0 mm 0 W/m2
18:19 4.9 °C 2.9 °C 1014.6 hPa Calm     87% 0.0 mm 0 W/m2
18:24 4.8 °C 2.8 °C 1014.6 hPa Calm     87% 0.0 mm 0 W/m2
18:29 4.7 °C 2.9 °C 1014.6 hPa Calm     88% 0.0 mm 0 W/m2
18:34 4.6 °C 2.9 °C 1014.6 hPa Calm     89% 0.0 mm 0 W/m2
18:39 4.5 °C 2.8 °C 1014.6 hPa Calm     89% 0.0 mm 0 W/m2
18:44 4.5 °C 3 °C 1014.9 hPa Calm     90% 0.0 mm 0 W/m2
18:49 4.3 °C 2.8 °C 1014.9 hPa Calm     90% 0.0 mm 0 W/m2
18:54 4.2 °C 2.9 °C 1014.9 hPa Calm     91% 0.0 mm 0 W/m2
18:59 4.2 °C 2.9 °C 1015.2 hPa Calm     91% 0.0 mm 0 W/m2
19:04 4 °C 2.7 °C 1015.2 hPa Calm     91% 0.0 mm 0 W/m2
19:09 3.9 °C 2.7 °C 1015.2 hPa Calm     92% 0.0 mm 0 W/m2
19:14 3.8 °C 2.6 °C 1015.2 hPa Calm     92% 0.0 mm 0 W/m2
19:19 3.8 °C 2.8 °C 1015.2 hPa Calm     93% 0.0 mm 0 W/m2
19:24 3.8 °C 2.8 °C 1015.2 hPa Calm     93% 0.0 mm 0 W/m2
19:29 3.8 °C 2.8 °C 1015.2 hPa Calm     93% 0.0 mm 0 W/m2
19:34 3.8 °C 2.8 °C 1015.6 hPa Calm     93% 0.0 mm 0 W/m2
19:39 3.8 °C 2.8 °C 1015.6 hPa Calm     93% 0.0 mm 0 W/m2
19:44 3.8 °C 2.8 °C 1015.9 hPa Calm     93% 0.0 mm 0 W/m2
19:49 3.7 °C 2.8 °C 1015.9 hPa Calm     94% 0.0 mm 0 W/m2
19:54 3.7 °C 2.8 °C 1015.9 hPa Calm     94% 0.0 mm 0 W/m2
19:59 3.6 °C 2.7 °C 1015.9 hPa Calm     94% 0.0 mm 0 W/m2
20:04 3.5 °C 2.6 °C 1015.9 hPa Calm     94% 0.0 mm 0 W/m2
20:09 3.6 °C 2.7 °C 1015.9 hPa Calm     94% 0.0 mm 0 W/m2
20:14 3.6 °C 2.7 °C 1015.9 hPa Calm     94% 0.0 mm 0 W/m2
20:19 3.7 °C 2.8 °C 1015.9 hPa Calm     94% 0.0 mm 0 W/m2
20:24 3.7 °C 2.8 °C 1015.9 hPa Calm     94% 0.0 mm 0 W/m2
20:29 3.7 °C 2.8 °C 1016.3 hPa Calm     94% 0.0 mm 0 W/m2
20:34 3.7 °C 2.8 °C 1016.3 hPa Calm     94% 0.0 mm 0 W/m2
20:39 3.8 °C 3.1 °C 1016.3 hPa Calm     95% 0.0 mm 0 W/m2
20:44 4 °C 3.1 °C 1016.3 hPa Calm     94% 0.0 mm 0 W/m2
20:49 4.2 °C 3.3 °C 1016.3 hPa Calm     94% 0.0 mm 0 W/m2
20:54 4.3 °C 3.4 °C 1016.3 hPa Calm     94% 0.0 mm 0 W/m2
20:59 4.4 °C 3.4 °C 1016.3 hPa Calm     93% 0.0 mm 0 W/m2
21:04 4.4 °C 3.4 °C 1016.3 hPa Calm     93% 0.0 mm 0 W/m2
21:09 4.4 °C 3.2 °C 1016.3 hPa Calm     92% 0.0 mm 0 W/m2
21:14 4.4 °C 3.2 °C 1016.3 hPa Calm     92% 0.0 mm 0 W/m2
21:19 4.5 °C 3.3 °C 1016.3 hPa Calm     92% 0.0 mm 0 W/m2
21:25 4.4 °C 3.2 °C 1016.3 hPa Calm     92% 0.0 mm 0 W/m2
21:30 4.4 °C 3.2 °C 1016.3 hPa Calm     92% 0.0 mm 0 W/m2
21:35 4.3 °C 3.1 °C 1016.3 hPa Calm     92% 0.0 mm 0 W/m2
21:40 4.2 °C 3 °C 1016.3 hPa Calm     92% 0.0 mm 0 W/m2
21:45 4.2 °C 3.2 °C 1016.3 hPa Calm     93% 0.0 mm 0 W/m2
21:50 4.2 °C 3.2 °C 1016.3 hPa Calm     93% 0.0 mm 0 W/m2
21:55 4.2 °C 3 °C 1016.3 hPa Calm     92% 0.0 mm 0 W/m2
22:00 4.1 °C 3.1 °C 1016.3 hPa Calm     93% 0.0 mm 0 W/m2
22:05 4.1 °C 3.1 °C 1016.3 hPa Calm     93% 0.0 mm 0 W/m2
22:10 4.1 °C 3.1 °C 1016.6 hPa Calm     93% 0.0 mm 0 W/m2
22:15 4 °C 3 °C 1016.6 hPa Calm     93% 0.0 mm 0 W/m2
22:20 3.9 °C 2.9 °C 1016.6 hPa Calm     93% 0.0 mm 0 W/m2
22:25 3.8 °C 2.8 °C 1016.6 hPa Calm     93% 0.0 mm 0 W/m2
22:30 3.8 °C 2.9 °C 1016.6 hPa Calm     94% 0.0 mm 0 W/m2
22:36 3.9 °C 3 °C 1016.6 hPa Calm     94% 0.0 mm 0 W/m2
22:41 4 °C 3.1 °C 1016.6 hPa Calm     94% 0.0 mm 0 W/m2
22:46 4.1 °C 3.2 °C 1016.9 hPa Calm     94% 0.0 mm 0 W/m2
22:51 4.1 °C 3.1 °C 1016.9 hPa Calm     93% 0.0 mm 0 W/m2
22:56 4.2 °C 3.2 °C 1016.9 hPa Calm     93% 0.0 mm 0 W/m2
23:01 4.2 °C 3.2 °C 1016.9 hPa Calm     93% 0.0 mm 0 W/m2
23:06 4.3 °C 3.3 °C 1016.9 hPa Calm     93% 0.0 mm 0 W/m2
23:11 4.3 °C 3.3 °C 1016.9 hPa Calm     93% 0.0 mm 0 W/m2
23:16 4.4 °C 3.4 °C 1016.9 hPa Calm     93% 0.0 mm 0 W/m2
23:21 4.4 °C 3.4 °C 1016.9 hPa Calm     93% 0.0 mm 0 W/m2
23:26 4.4 °C 3.2 °C 1016.9 hPa Calm     92% 0.0 mm 0 W/m2
23:31 4.4 °C 3.2 °C 1016.9 hPa Calm   1.6 km/h 92% 0.0 mm 0 W/m2
23:36 4.3 °C 3.1 °C 1016.9 hPa Calm     92% 0.0 mm 0 W/m2
23:41 4.3 °C 3.1 °C 1016.9 hPa Calm   1.6 km/h 92% 0.0 mm 0 W/m2
23:46 4.2 °C 3 °C 1016.9 hPa Calm     92% 0.0 mm 0 W/m2
23:51 4.2 °C 3 °C 1016.9 hPa Calm   1.6 km/h 92% 0.0 mm 0 W/m2
23:56 4.1 °C 2.9 °C 1016.9 hPa Calm     92% 0.0 mm 0 W/m2
Juneau County Weather
Compliments of Weather Underground - 4 mb